createdAt,value
2018-11-03T00:02:25.012Z,102312.35
2018-11-03T00:04:53.661Z,102310.59
2018-11-03T00:07:22.274Z,102316.63
2018-11-03T00:09:50.904Z,102312.66
2018-11-03T00:12:19.486Z,102310.61
2018-11-03T00:14:48.060Z,102295.97
2018-11-03T00:17:16.634Z,102287.36
2018-11-03T00:19:45.835Z,102291.63
2018-11-03T00:22:14.429Z,102297.72
2018-11-03T00:24:44.651Z,102299.84
2018-11-03T00:27:13.253Z,102299.42
2018-11-03T00:29:41.850Z,102296.04
2018-11-03T00:32:10.464Z,102302.97
2018-11-03T00:34:39.074Z,102301.23
2018-11-03T00:37:07.639Z,102301.59
2018-11-03T00:39:37.184Z,102297.72
2018-11-03T00:42:05.976Z,102292.55
2018-11-03T00:44:34.532Z,102292.55
2018-11-03T00:47:03.117Z,102290.83
2018-11-03T00:49:32.578Z,102287.73
2018-11-03T00:52:01.173Z,102289.34
2018-11-03T00:54:30.986Z,102295.42
2018-11-03T00:56:59.603Z,102295.13
2018-11-03T00:59:28.156Z,102299.50
2018-11-03T01:01:56.788Z,102300.42
2018-11-03T01:04:25.367Z,102308.19
2018-11-03T01:06:53.935Z,102306.52
2018-11-03T01:09:22.513Z,102307.87
2018-11-03T01:11:51.945Z,102305.71
2018-11-03T01:14:20.798Z,102307.87
2018-11-03T01:16:49.408Z,102301.00
2018-11-03T01:19:17.964Z,102295.80
2018-11-03T01:21:47.417Z,102296.25
2018-11-03T01:24:16.864Z,102306.17
2018-11-03T01:26:45.812Z,102308.34
2018-11-03T01:29:15.927Z,102306.19
2018-11-03T01:31:45.789Z,102303.60
2018-11-03T01:34:14.366Z,102307.92
2018-11-03T01:36:44.045Z,102302.68
2018-11-03T01:39:13.211Z,102302.71
2018-11-03T01:41:42.738Z,102301.44
2018-11-03T01:44:11.343Z,102297.98
2018-11-03T01:46:39.919Z,102298.87
2018-11-03T01:49:09.369Z,102289.34
2018-11-03T01:51:38.954Z,102300.50
2018-11-03T01:54:08.380Z,102299.23
2018-11-03T01:56:36.953Z,102292.78
2018-11-03T01:59:06.623Z,102287.63
2018-11-03T02:01:35.191Z,102301.88
2018-11-03T02:04:03.779Z,102307.03
2018-11-03T02:06:33.231Z,102307.46
2018-11-03T02:09:01.847Z,102311.34
2018-11-03T02:11:31.309Z,102308.31
2018-11-03T02:13:59.874Z,102319.13
2018-11-03T02:16:28.443Z,102320.45
2018-11-03T02:18:57.857Z,102324.77
2018-11-03T02:21:26.407Z,102326.47
2018-11-03T02:23:56.017Z,102326.08
2018-11-03T02:26:25.587Z,102330.83
2018-11-03T02:28:55.042Z,102334.25
2018-11-03T02:31:23.625Z,102337.73
2018-11-03T02:33:52.188Z,102339.90
2018-11-03T02:36:21.780Z,102345.13
2018-11-03T02:38:51.230Z,102336.95
2018-11-03T02:41:19.791Z,102336.52
2018-11-03T02:43:49.389Z,102336.94
2018-11-03T02:46:19.179Z,102345.13
2018-11-03T02:48:47.758Z,102350.73
2018-11-03T02:51:17.789Z,102361.09
2018-11-03T02:53:47.785Z,102352.90
2018-11-03T02:56:17.681Z,102356.34
2018-11-03T02:58:47.291Z,102364.12
2018-11-03T03:01:16.557Z,102367.12
2018-11-03T03:03:46.631Z,102375.34
2018-11-03T03:06:16.695Z,102377.93
2018-11-03T03:08:46.234Z,102382.66
2018-11-03T03:11:16.269Z,102380.52
2018-11-03T03:13:46.886Z,102374.00
2018-11-03T03:16:17.334Z,102375.28
2018-11-03T03:18:46.719Z,102379.20
2018-11-03T03:21:15.985Z,102377.89
2018-11-03T03:23:46.487Z,102377.01
2018-11-03T03:26:16.629Z,102377.00
2018-11-03T03:28:46.806Z,102388.65
2018-11-03T03:31:17.472Z,102388.64
2018-11-03T03:33:46.785Z,102393.00
2018-11-03T03:36:16.131Z,102386.13
2018-11-03T03:38:46.671Z,102386.97
2018-11-03T03:41:15.998Z,102396.92
2018-11-03T03:43:46.188Z,102396.47
2018-11-03T03:46:15.474Z,102395.63
2018-11-03T03:48:45.680Z,102394.33
2018-11-03T03:51:15.622Z,102400.80
2018-11-03T03:53:44.665Z,102398.62
2018-11-03T03:56:14.641Z,102404.23
2018-11-03T03:58:44.617Z,102408.53
2018-11-03T04:01:13.223Z,102408.52
2018-11-03T04:03:43.225Z,102410.25
2018-11-03T04:06:12.778Z,102402.92
2018-11-03T04:08:42.441Z,102401.64
2018-11-03T04:11:11.038Z,102402.94
2018-11-03T04:13:39.608Z,102405.53
2018-11-03T04:16:08.158Z,102402.90
2018-11-03T04:18:36.725Z,102399.90
2018-11-03T04:21:05.452Z,102398.19
2018-11-03T04:23:34.018Z,102393.88
2018-11-03T04:26:02.621Z,102396.47
2018-11-03T04:28:32.077Z,102405.92
2018-11-03T04:31:01.613Z,102399.47
2018-11-03T04:33:30.949Z,102402.92
2018-11-03T04:36:00.450Z,102405.09
2018-11-03T04:38:29.062Z,102396.46
2018-11-03T04:40:57.638Z,102389.14
2018-11-03T04:43:27.179Z,102389.16
2018-11-03T04:45:56.677Z,102397.78
2018-11-03T04:48:26.159Z,102406.40
2018-11-03T04:50:55.633Z,102404.69
2018-11-03T04:53:24.195Z,102405.98
2018-11-03T04:55:52.751Z,102405.56
2018-11-03T04:58:21.323Z,102413.77
2018-11-03T05:00:49.989Z,102403.41
2018-11-03T05:03:18.595Z,102403.39
2018-11-03T05:05:47.174Z,102413.72
2018-11-03T05:08:17.613Z,102411.98
2018-11-03T05:10:47.137Z,102414.16
2018-11-03T05:13:16.353Z,102419.73
2018-11-03T05:15:46.836Z,102427.51
2018-11-03T05:18:16.260Z,102432.70
2018-11-03T05:20:45.983Z,102431.42
2018-11-03T05:23:16.588Z,102427.95
2018-11-03T05:25:46.884Z,102425.81
2018-11-03T05:28:16.524Z,102427.13
2018-11-03T05:30:45.726Z,102432.73
2018-11-03T05:33:15.957Z,102434.05
2018-11-03T05:35:45.935Z,102437.05
2018-11-03T05:38:15.623Z,102431.88
2018-11-03T05:40:45.552Z,102440.95
2018-11-03T05:43:15.859Z,102432.31
2018-11-03T05:45:45.288Z,102433.16
2018-11-03T05:48:14.809Z,102444.81
2018-11-03T05:50:43.448Z,102442.23
2018-11-03T05:53:13.409Z,102443.12
2018-11-03T05:55:43.966Z,102440.95
2018-11-03T05:58:14.552Z,102442.66
2018-11-03T06:00:45.198Z,102443.10
2018-11-03T06:03:15.251Z,102453.89
2018-11-03T06:05:44.824Z,102447.39
2018-11-03T06:08:15.371Z,102445.69
2018-11-03T06:10:46.047Z,102454.30
2018-11-03T06:13:15.594Z,102461.64
2018-11-03T06:15:44.638Z,102459.09
2018-11-03T06:18:14.980Z,102459.52
2018-11-03T06:20:45.226Z,102458.64
2018-11-03T06:23:14.613Z,102465.13
2018-11-03T06:25:45.040Z,102467.28
2018-11-03T06:28:14.373Z,102473.75
2018-11-03T06:30:42.829Z,102474.19
2018-11-03T06:33:11.346Z,102479.79
2018-11-03T06:35:39.917Z,102484.52
2018-11-03T06:38:08.863Z,102480.24
2018-11-03T06:40:37.586Z,102481.53
2018-11-03T06:43:06.709Z,102480.22
2018-11-03T06:45:35.419Z,102478.95
2018-11-03T06:48:04.112Z,102487.14
2018-11-03T06:50:32.677Z,102481.11
2018-11-03T06:53:01.694Z,102489.30
2018-11-03T06:55:30.283Z,102490.11
2018-11-03T06:57:58.938Z,102493.55
2018-11-03T07:00:27.520Z,102494.43
2018-11-03T07:02:56.342Z,102495.27
2018-11-03T07:05:24.904Z,102492.70
2018-11-03T07:07:53.698Z,102502.21
2018-11-03T07:10:23.177Z,102493.53
2018-11-03T07:12:51.924Z,102501.69
2018-11-03T07:15:20.395Z,102506.42
2018-11-03T07:17:48.987Z,102504.64
2018-11-03T07:20:17.566Z,102501.56
2018-11-03T07:22:46.891Z,102514.05
2018-11-03T07:25:16.314Z,102513.20
2018-11-03T07:27:45.904Z,102514.06
2018-11-03T07:30:16.227Z,102516.23
2018-11-03T07:32:45.290Z,102516.69
2018-11-03T07:35:15.296Z,102520.59
2018-11-03T07:37:44.177Z,102516.22
2018-11-03T07:40:15.447Z,102515.35
2018-11-03T07:42:45.778Z,102514.91
2018-11-03T07:45:14.394Z,102513.66
2018-11-03T07:47:44.631Z,102517.95
2018-11-03T07:50:14.394Z,102523.61
2018-11-03T07:52:44.370Z,102523.95
2018-11-03T07:55:14.416Z,102527.81
2018-11-03T07:57:43.289Z,102530.70
2018-11-03T08:00:13.371Z,102520.23
2018-11-03T08:02:41.981Z,102520.77
2018-11-03T08:05:12.494Z,102527.98
2018-11-03T08:07:42.099Z,102537.83
2018-11-03T08:10:12.389Z,102523.40
2018-11-03T08:12:41.102Z,102519.41
2018-11-03T08:15:11.467Z,102518.95
2018-11-03T08:17:41.316Z,102519.27
2018-11-03T08:20:11.229Z,102519.29
2018-11-03T08:22:40.993Z,102519.47
2018-11-03T08:25:10.607Z,102516.94
2018-11-03T08:27:39.404Z,102518.66
2018-11-03T08:30:10.786Z,102526.23
2018-11-03T08:32:40.240Z,102529.13
2018-11-03T08:35:09.717Z,102532.83
2018-11-03T08:37:38.858Z,102537.93
2018-11-03T08:40:09.452Z,102528.75
2018-11-03T08:42:39.166Z,102533.61
2018-11-03T08:45:08.240Z,102527.86
2018-11-03T08:47:36.922Z,102528.25
2018-11-03T08:50:06.606Z,102527.77
2018-11-03T08:52:36.159Z,102526.78
2018-11-03T08:55:04.786Z,102529.13
2018-11-03T08:57:33.396Z,102532.03
2018-11-03T09:00:02.161Z,102525.89
2018-11-03T09:02:30.747Z,102526.27
2018-11-03T09:04:59.422Z,102522.16
2018-11-03T09:07:29.088Z,102529.73
2018-11-03T09:09:57.802Z,102529.22
2018-11-03T09:12:26.426Z,102532.59
2018-11-03T09:14:55.119Z,102530.91
2018-11-03T09:17:23.862Z,102526.48
2018-11-03T09:19:53.693Z,102519.42
2018-11-03T09:22:23.690Z,102519.38
2018-11-03T09:24:52.356Z,102520.77
2018-11-03T09:27:21.903Z,102518.51
2018-11-03T09:29:50.805Z,102524.86
2018-11-03T09:32:19.479Z,102525.84
2018-11-03T09:34:48.179Z,102530.98
2018-11-03T09:37:17.469Z,102537.92
2018-11-03T09:39:46.876Z,102531.63
2018-11-03T09:42:17.668Z,102536.19
2018-11-03T09:44:47.483Z,102533.91
2018-11-03T09:47:16.972Z,102532.66
2018-11-03T09:49:46.609Z,102525.02
2018-11-03T09:52:17.492Z,102529.92
2018-11-03T09:54:46.882Z,102529.38
2018-11-03T09:57:16.359Z,102530.06
2018-11-03T09:59:45.796Z,102532.17
2018-11-03T10:02:15.238Z,102533.84
2018-11-03T10:04:51.667Z,102536.31
2018-11-03T10:07:21.408Z,102529.68
2018-11-03T10:09:51.118Z,102532.60
2018-11-03T10:12:20.760Z,102529.14
2018-11-03T10:14:50.392Z,102530.45
2018-11-03T10:17:19.847Z,102534.93
2018-11-03T10:19:48.546Z,102534.53
2018-11-03T10:22:18.101Z,102535.42
2018-11-03T10:24:47.576Z,102532.88
2018-11-03T10:27:17.026Z,102530.34
2018-11-03T10:29:46.532Z,102528.58
2018-11-03T10:32:16.760Z,102525.27
2018-11-03T10:34:46.226Z,102518.45
2018-11-03T10:37:15.301Z,102525.27
2018-11-03T10:39:45.567Z,102523.92
2018-11-03T10:42:15.648Z,102525.73
2018-11-03T10:44:45.673Z,102523.47
2018-11-03T10:47:14.519Z,102513.14
2018-11-03T10:49:44.550Z,102507.23
2018-11-03T10:52:15.310Z,102513.71
2018-11-03T10:54:44.917Z,102512.86
2018-11-03T10:57:14.594Z,102508.42
2018-11-03T10:59:43.445Z,102510.55
2018-11-03T11:02:17.195Z,102515.78
2018-11-03T11:04:51.391Z,102520.41
2018-11-03T11:07:25.235Z,102513.42
2018-11-03T11:09:59.214Z,102509.93
2018-11-03T11:12:33.189Z,102502.33
2018-11-03T11:15:01.746Z,102498.30
2018-11-03T11:17:30.291Z,102493.02
2018-11-03T11:19:58.941Z,102497.86
2018-11-03T11:22:28.393Z,102494.09
2018-11-03T11:24:57.066Z,102500.28
2018-11-03T11:27:25.663Z,102492.84
2018-11-03T11:29:54.246Z,102496.60
2018-11-03T11:32:22.809Z,102491.65
2018-11-03T11:34:51.532Z,102488.39
2018-11-03T11:37:20.330Z,102485.89
2018-11-03T11:39:49.044Z,102482.32
2018-11-03T11:42:17.685Z,102486.28
2018-11-03T11:44:48.259Z,102482.55
2018-11-03T11:47:16.955Z,102478.69
2018-11-03T11:49:46.728Z,102475.31
2018-11-03T11:52:16.182Z,102472.92
2018-11-03T11:54:46.855Z,102482.66
2018-11-03T11:57:15.908Z,102481.70
2018-11-03T11:59:46.516Z,102475.59
2018-11-03T12:02:16.520Z,102472.80
2018-11-03T12:04:45.797Z,102469.66
2018-11-03T12:07:14.598Z,102468.23
2018-11-03T12:09:43.193Z,102470.94
2018-11-03T12:12:12.767Z,102468.62
2018-11-03T12:14:42.361Z,102464.18
2018-11-03T12:17:10.898Z,102464.47
2018-11-03T12:19:40.389Z,102461.06
2018-11-03T12:22:09.863Z,102461.56
2018-11-03T12:24:38.479Z,102463.45
2018-11-03T12:27:07.995Z,102456.33
2018-11-03T12:29:36.590Z,102452.12
2018-11-03T12:32:06.220Z,102447.89
2018-11-03T12:34:35.443Z,102452.61
2018-11-03T12:37:04.967Z,102445.61
2018-11-03T12:39:34.442Z,102453.94
2018-11-03T12:42:03.878Z,102453.56
2018-11-03T12:44:32.676Z,102453.37
2018-11-03T12:47:02.237Z,102445.73
2018-11-03T12:49:31.008Z,102452.30
2018-11-03T12:52:00.613Z,102449.17
2018-11-03T12:54:30.012Z,102455.19
2018-11-03T12:56:59.519Z,102449.00
2018-11-03T12:59:28.965Z,102448.88
2018-11-03T13:01:58.348Z,102443.59
2018-11-03T13:04:26.901Z,102444.20
2018-11-03T13:06:56.544Z,102443.70
2018-11-03T13:09:25.097Z,102442.39
2018-11-03T13:11:53.673Z,102445.36
2018-11-03T13:14:23.560Z,102441.83
2018-11-03T13:16:52.918Z,102436.70
2018-11-03T13:19:21.503Z,102441.34
2018-11-03T13:21:51.134Z,102442.06
2018-11-03T13:24:19.770Z,102444.97
2018-11-03T13:26:48.336Z,102449.06
2018-11-03T13:29:16.905Z,102450.60
2018-11-03T13:31:46.421Z,102443.48
2018-11-03T13:34:16.910Z,102444.48
2018-11-03T13:36:47.570Z,102447.33
2018-11-03T13:39:17.413Z,102447.19
2018-11-03T13:41:46.933Z,102437.78
2018-11-03T13:44:16.540Z,102433.67
2018-11-03T13:46:45.998Z,102436.19
2018-11-03T13:49:16.656Z,102435.64
2018-11-03T13:51:47.468Z,102441.52
2018-11-03T13:54:17.060Z,102447.03
2018-11-03T13:56:46.920Z,102441.16
2018-11-03T13:59:17.162Z,102439.09
2018-11-03T14:01:46.806Z,102440.91
2018-11-03T14:04:16.191Z,102446.59
2018-11-03T14:06:46.800Z,102455.22
2018-11-03T14:09:16.199Z,102450.95
2018-11-03T14:11:45.969Z,102450.49
2018-11-03T14:14:15.387Z,102453.61
2018-11-03T14:16:45.382Z,102458.54
2018-11-03T14:19:15.908Z,102452.27
2018-11-03T14:21:45.120Z,102459.30
2018-11-03T14:24:15.517Z,102451.20
2018-11-03T14:26:44.652Z,102448.59
2018-11-03T14:29:13.400Z,102447.18
2018-11-03T14:31:42.043Z,102440.41
2018-11-03T14:34:10.766Z,102441.56
2018-11-03T14:36:39.478Z,102448.13
2018-11-03T14:39:09.539Z,102447.39
2018-11-03T14:41:39.255Z,102443.82
2018-11-03T14:44:07.776Z,102444.72
2018-11-03T14:46:36.344Z,102443.62
2018-11-03T14:49:05.418Z,102443.50
2018-11-03T14:51:34.172Z,102446.22
2018-11-03T14:54:02.868Z,102447.30
2018-11-03T14:56:31.401Z,102450.58
2018-11-03T14:59:00.056Z,102446.80
2018-11-03T15:01:29.068Z,102450.00
2018-11-03T15:03:57.654Z,102441.45
2018-11-03T15:06:26.452Z,102435.99
2018-11-03T15:08:55.002Z,102436.16
2018-11-03T15:11:23.535Z,102435.59
2018-11-03T15:13:52.222Z,102437.22
2018-11-03T15:16:21.798Z,102440.09
2018-11-03T15:18:50.487Z,102435.54
2018-11-03T15:21:19.094Z,102437.53
2018-11-03T15:23:47.759Z,102437.30
2018-11-03T15:26:17.504Z,102435.23
2018-11-03T15:28:46.870Z,102432.22
2018-11-03T15:31:16.157Z,102434.56
2018-11-03T15:33:45.634Z,102435.92
2018-11-03T15:36:17.592Z,102437.81
2018-11-03T15:38:46.438Z,102437.13
2018-11-03T15:41:16.953Z,102441.64
2018-11-03T15:43:46.133Z,102441.76
2018-11-03T15:46:15.375Z,102436.27
2018-11-03T15:48:45.524Z,102441.53
2018-11-03T15:51:14.676Z,102438.48
2018-11-03T15:53:43.212Z,102431.98
2018-11-03T15:56:12.684Z,102435.88
2018-11-03T15:58:41.907Z,102436.33
2018-11-03T16:01:10.476Z,102430.32
2018-11-03T16:03:39.168Z,102430.34
2018-11-03T16:06:07.707Z,102426.09
2018-11-03T16:08:36.396Z,102422.67
2018-11-03T16:11:05.109Z,102417.95
2018-11-03T16:13:33.971Z,102428.77
2018-11-03T16:16:02.522Z,102425.41
2018-11-03T16:18:31.108Z,102425.09
2018-11-03T16:21:00.573Z,102420.83
2018-11-03T16:23:30.051Z,102415.28
2018-11-03T16:25:59.826Z,102423.56
2018-11-03T16:28:29.366Z,102420.13
2018-11-03T16:30:57.912Z,102428.84
2018-11-03T16:33:26.474Z,102428.05
2018-11-03T16:35:55.154Z,102425.10
2018-11-03T16:38:24.152Z,102423.45
2018-11-03T16:40:53.840Z,102417.44
2018-11-03T16:43:22.436Z,102424.82
2018-11-03T16:45:51.938Z,102421.33
2018-11-03T16:48:21.413Z,102429.17
2018-11-03T16:50:50.008Z,102436.52
2018-11-03T16:53:18.676Z,102433.50
2018-11-03T16:55:47.272Z,102431.36
2018-11-03T16:58:16.755Z,102428.32
2018-11-03T17:00:46.083Z,102440.42
2018-11-03T17:03:15.819Z,102439.58
2018-11-03T17:05:45.239Z,102441.75
2018-11-03T17:08:14.955Z,102440.44
2018-11-03T17:10:44.618Z,102438.70
2018-11-03T17:13:13.313Z,102436.56
2018-11-03T17:15:41.880Z,102438.30
2018-11-03T17:18:10.430Z,102427.07
2018-11-03T17:20:39.344Z,102427.95
2018-11-03T17:23:08.131Z,102429.27
2018-11-03T17:25:37.079Z,102425.38
2018-11-03T17:28:06.052Z,102430.57
2018-11-03T17:30:35.643Z,102424.54
2018-11-03T17:33:04.403Z,102430.14
2018-11-03T17:35:33.165Z,102432.30
2018-11-03T17:38:03.020Z,102429.70
2018-11-03T17:40:31.621Z,102428.86
2018-11-03T17:43:00.397Z,102425.42
2018-11-03T17:45:29.206Z,102423.23
2018-11-03T17:47:57.786Z,102427.55
2018-11-03T17:50:26.431Z,102423.68
2018-11-03T17:52:55.033Z,102416.77
2018-11-03T17:55:23.570Z,102424.55
2018-11-03T17:57:52.353Z,102420.66
2018-11-03T18:00:21.056Z,102418.91
2018-11-03T18:02:49.550Z,102417.19
2018-11-03T18:05:18.123Z,102415.47
2018-11-03T18:07:47.161Z,102412.03
2018-11-03T18:10:16.387Z,102423.67
2018-11-03T18:12:45.665Z,102416.76
2018-11-03T18:15:14.452Z,102410.70
2018-11-03T18:17:44.602Z,102410.27
2018-11-03T18:20:13.292Z,102405.53
2018-11-03T18:22:41.906Z,102399.50
2018-11-03T18:25:11.201Z,102395.60
2018-11-03T18:27:40.624Z,102395.59
2018-11-03T18:30:10.618Z,102393.89
2018-11-03T18:32:40.587Z,102403.80
2018-11-03T18:35:09.364Z,102395.20
2018-11-03T18:37:38.518Z,102390.86
2018-11-03T18:40:07.884Z,102393.03
2018-11-03T18:42:37.799Z,102390.45
2018-11-03T18:45:06.516Z,102386.98
2018-11-03T18:47:35.077Z,102383.09
2018-11-03T18:50:05.364Z,102386.97
2018-11-03T18:52:33.924Z,102390.87
2018-11-03T18:55:02.530Z,102386.98
2018-11-03T18:57:32.088Z,102383.11
2018-11-03T19:00:00.728Z,102393.02
2018-11-03T19:02:29.765Z,102390.88
2018-11-03T19:04:58.404Z,102385.68
2018-11-03T19:07:26.951Z,102384.84
2018-11-03T19:09:56.631Z,102389.58
2018-11-03T19:12:25.341Z,102383.94
2018-11-03T19:14:54.800Z,102385.25
2018-11-03T19:17:23.515Z,102381.80
2018-11-03T19:19:52.326Z,102374.47
2018-11-03T19:22:21.987Z,102372.73
2018-11-03T19:24:51.545Z,102379.21
2018-11-03T19:27:20.116Z,102380.08
2018-11-03T19:29:49.631Z,102385.23
2018-11-03T19:32:18.195Z,102374.46
2018-11-03T19:34:46.805Z,102377.03
2018-11-03T19:37:16.326Z,102378.73
2018-11-03T19:39:45.713Z,102377.44
2018-11-03T19:42:14.554Z,102368.39
2018-11-03T19:44:43.523Z,102364.05
2018-11-03T19:47:12.441Z,102369.23
2018-11-03T19:49:41.374Z,102372.27
2018-11-03T19:52:10.302Z,102375.72
2018-11-03T19:54:38.958Z,102371.86
2018-11-03T19:57:07.534Z,102377.05
2018-11-03T19:59:36.129Z,102371.03
2018-11-03T20:02:04.848Z,102369.72
2018-11-03T20:04:34.403Z,102367.58
2018-11-03T20:07:03.285Z,102373.59
2018-11-03T20:09:31.843Z,102370.15
2018-11-03T20:12:00.348Z,102368.87
2018-11-03T20:14:29.025Z,102365.41
2018-11-03T20:16:57.607Z,102367.56
2018-11-03T20:19:27.028Z,102370.16
2018-11-03T20:21:55.674Z,102368.42
2018-11-03T20:24:24.240Z,102364.95
2018-11-03T20:26:52.938Z,102365.84
2018-11-03T20:29:21.511Z,102365.40
2018-11-03T20:31:51.085Z,102363.64
2018-11-03T20:34:20.520Z,102358.87
2018-11-03T20:36:49.110Z,102356.28
2018-11-03T20:39:18.538Z,102355.86
2018-11-03T20:41:47.147Z,102357.59
2018-11-03T20:44:16.667Z,102351.11
2018-11-03T20:46:46.188Z,102346.82
2018-11-03T20:49:14.908Z,102342.92
2018-11-03T20:51:44.535Z,102339.01
2018-11-03T20:54:13.310Z,102343.72
2018-11-03T20:56:41.889Z,102335.54
2018-11-03T20:59:11.283Z,102337.26
2018-11-03T21:01:39.902Z,102336.41
2018-11-03T21:04:08.454Z,102328.60
2018-11-03T21:06:37.008Z,102329.91
2018-11-03T21:09:07.390Z,102327.30
2018-11-03T21:11:36.453Z,102329.01
2018-11-03T21:14:05.472Z,102322.52
2018-11-03T21:16:34.106Z,102317.75
2018-11-03T21:19:03.751Z,102314.70
2018-11-03T21:21:32.391Z,102311.23
2018-11-03T21:24:01.065Z,102306.03
2018-11-03T21:26:29.639Z,102311.64
2018-11-03T21:28:58.255Z,102307.36
2018-11-03T21:31:26.839Z,102312.09
2018-11-03T21:33:55.441Z,102308.61
2018-11-03T21:36:25.030Z,102305.12
2018-11-03T21:38:53.707Z,102290.89
2018-11-03T21:41:22.521Z,102292.66
2018-11-03T21:43:52.015Z,102277.52
2018-11-03T21:46:20.738Z,102279.72
2018-11-03T21:48:50.311Z,102281.89
2018-11-03T21:51:20.005Z,102287.06
2018-11-03T21:53:48.590Z,102282.30
2018-11-03T21:56:17.368Z,102272.41
2018-11-03T21:58:46.569Z,102267.22
2018-11-03T22:01:17.387Z,102265.50
2018-11-03T22:03:47.430Z,102265.93
2018-11-03T22:06:16.954Z,102263.34
2018-11-03T22:08:46.199Z,102255.98
2018-11-03T22:11:15.449Z,102252.55
2018-11-03T22:13:44.735Z,102250.41
2018-11-03T22:16:13.501Z,102250.38
2018-11-03T22:18:43.985Z,102241.76
2018-11-03T22:21:13.371Z,102241.31
2018-11-03T22:23:42.822Z,102236.98
2018-11-03T22:26:13.708Z,102232.23
2018-11-03T22:28:42.357Z,102233.13
2018-11-03T22:31:11.791Z,102225.41
2018-11-03T22:33:41.320Z,102224.98
2018-11-03T22:36:10.002Z,102222.89
2018-11-03T22:38:38.543Z,102224.56
2018-11-03T22:41:07.121Z,102220.25
2018-11-03T22:43:35.745Z,102217.23
2018-11-03T22:46:04.289Z,102210.80
2018-11-03T22:48:32.955Z,102215.16
2018-11-03T22:51:01.543Z,102204.82
2018-11-03T22:53:30.127Z,102199.25
2018-11-03T22:55:58.678Z,102201.02
2018-11-03T22:58:27.204Z,102189.84
2018-11-03T23:00:57.275Z,102187.25
2018-11-03T23:03:26.601Z,102178.21
2018-11-03T23:05:55.195Z,102176.48
2018-11-03T23:08:24.106Z,102173.06
2018-11-03T23:10:52.681Z,102174.80
2018-11-03T23:13:21.229Z,102167.02
2018-11-03T23:15:49.791Z,102172.19
2018-11-03T23:18:18.473Z,102163.09
2018-11-03T23:20:47.047Z,102163.53
2018-11-03T23:23:17.482Z,102162.65
2018-11-03T23:25:46.654Z,102155.33
2018-11-03T23:28:16.137Z,102151.86
2018-11-03T23:30:45.617Z,102153.58
2018-11-03T23:33:14.519Z,102149.66
2018-11-03T23:35:43.565Z,102148.35
2018-11-03T23:38:12.094Z,102145.39
2018-11-03T23:40:40.660Z,102141.49
2018-11-03T23:43:09.333Z,102139.33
2018-11-03T23:45:37.971Z,102138.00
2018-11-03T23:48:07.573Z,102129.83
2018-11-03T23:50:36.157Z,102130.70
2018-11-03T23:53:04.810Z,102128.13
2018-11-03T23:55:33.386Z,102122.08
2018-11-03T23:58:01.941Z,102121.66
